Time;durP1;ratioP1;P1;durP2;ratioP2;P2;SDS_P1;SDS_P2;PMS_P1;PMS_P2;Temp;Humidity;BMP_temperature;BMP_pressure;BME280_temperature;BME280_humidity;BME280_pressure;Samples;Min_cycle;Max_cycle;Signal;HPM_P1;HPM_P2
2021/11/12 00:12:41;;;;;;;41.00;27.67;;;3.70;99.90;;;4.40;100.00;100929.41;5093455;28;20269;-55
2021/11/12 00:15:11;;;;;;;40.20;27.67;;;3.70;99.90;;;4.49;100.00;100936.44;5094297;28;20217;-53
2021/11/12 00:17:41;;;;;;;40.10;26.47;;;3.70;99.90;;;4.53;100.00;100931.63;5092290;28;20319;-54
2021/11/12 00:20:11;;;;;;;38.23;25.33;;;3.70;99.90;;;4.66;100.00;100940.84;5092686;28;20235;-51
2021/11/12 00:22:39;;;;;;;38.10;25.63;;;3.80;99.90;;;4.60;100.00;100927.31;5092507;28;20273;-52
2021/11/12 00:25:08;;;;;;;40.40;27.07;;;3.80;99.90;;;4.63;100.00;100927.00;5092660;28;20202;-54
2021/11/12 00:27:37;;;;;;;37.50;24.97;;;3.80;99.90;;;4.52;100.00;100920.13;5092347;28;20297;-54
2021/11/12 00:30:23;;;;;;;41.63;29.70;;;3.80;99.90;;;4.54;100.00;100923.47;5092635;28;20202;-54
2021/11/12 00:32:59;;;;;;;42.33;28.03;;;3.80;99.90;;;4.59;100.00;100921.13;5092747;28;20273;-54
2021/11/12 00:35:35;;;;;;;38.47;25.80;;;3.80;99.90;;;4.53;100.00;100921.78;5092693;28;20218;-55
2021/11/12 00:38:07;;;;;;;40.53;28.83;;;3.80;99.90;;;4.57;100.00;100922.28;5092822;28;20390;-55
2021/11/12 00:40:45;;;;;;;41.80;27.43;;;3.80;99.90;;;4.55;100.00;100913.63;5092490;28;20302;-54
2021/11/12 00:43:29;;;;;;;41.47;28.17;;;3.80;99.90;;;4.56;100.00;100915.28;5092430;28;20282;-55
2021/11/12 00:46:09;;;;;;;43.20;26.93;;;3.80;99.90;;;4.63;100.00;100922.47;5092522;28;20189;-52
2021/11/12 00:48:42;;;;;;;45.70;31.07;;;3.80;99.90;;;4.62;100.00;100923.47;5092384;28;20193;-54
2021/11/12 00:51:19;;;;;;;41.13;28.27;;;3.80;99.90;;;4.88;100.00;100923.38;5092459;28;20292;-54
2021/11/12 00:53:53;;;;;;;41.97;28.73;;;3.80;99.90;;;4.82;100.00;100908.84;5092629;28;20282;-55
2021/11/12 00:56:24;;;;;;;37.60;26.07;;;3.90;99.90;;;4.95;100.00;100911.84;5092323;28;20622;-52
2021/11/12 00:58:56;;;;;;;39.63;25.90;;;3.90;99.90;;;5.17;100.00;100910.41;5092359;28;20227;-53
2021/11/12 01:01:25;;;;;;;38.47;26.37;;;4.00;99.90;;;5.10;100.00;100909.38;5092337;28;20731;-49
2021/11/12 01:03:55;;;;;;;36.43;23.83;;;4.00;99.90;;;4.85;100.00;100910.38;5092998;28;20627;-54
2021/11/12 01:06:25;;;;;;;37.13;25.67;;;4.00;99.90;;;4.79;100.00;100906.50;5113267;28;20695;-53
2021/11/12 01:08:54;;;;;;;37.97;26.30;;;4.00;99.90;;;4.79;100.00;100911.00;5117007;28;20254;-54
2021/11/12 01:11:24;;;;;;;40.70;26.73;;;4.00;99.90;;;4.88;100.00;100902.03;5116334;28;20206;-59
2021/11/12 01:13:54;;;;;;;39.07;25.83;;;4.00;99.90;;;5.03;100.00;100915.53;5116692;28;20220;-59
2021/11/12 01:16:23;;;;;;;43.10;26.70;;;4.00;99.90;;;4.81;100.00;100917.00;5116530;28;20309;-60
2021/11/12 01:18:51;;;;;;;41.70;26.40;;;4.00;99.90;;;4.87;100.00;100917.19;5115788;28;20290;-59
2021/11/12 01:21:21;;;;;;;40.30;26.37;;;4.00;99.90;;;4.83;100.00;100905.19;5116039;28;20292;-60
2021/11/12 01:23:53;;;;;;;41.63;26.03;;;4.00;99.90;;;5.05;100.00;100905.53;5116240;28;20187;-61
2021/11/12 01:26:25;;;;;;;38.20;25.47;;;4.10;99.90;;;5.13;100.00;100900.19;5116418;28;20213;-58
2021/11/12 01:28:54;;;;;;;38.47;24.90;;;4.20;99.90;;;4.99;100.00;100907.03;5116264;28;20272;-60
2021/11/12 01:31:27;;;;;;;33.80;23.53;;;4.20;99.90;;;5.02;100.00;100904.03;5116092;28;20292;-60
2021/11/12 01:33:56;;;;;;;33.87;22.87;;;4.20;99.90;;;4.97;100.00;100893.03;5115994;28;20257;-59
2021/11/12 01:36:31;;;;;;;36.60;24.07;;;4.10;99.90;;;4.92;100.00;100895.38;5115755;28;20292;-59
2021/11/12 01:39:06;;;;;;;36.77;24.00;;;4.10;99.90;;;5.01;100.00;100894.34;5115596;28;20262;-60
2021/11/12 01:41:35;;;;;;;36.57;23.60;;;4.20;99.90;;;5.05;100.00;100893.03;5115543;28;20280;-60
2021/11/12 01:44:07;;;;;;;38.07;23.97;;;4.20;99.90;;;5.01;100.00;100896.22;5115822;28;20297;-59
2021/11/12 01:46:47;;;;;;;38.10;24.97;;;4.20;99.90;;;5.02;100.00;100897.88;5115861;28;20248;-59
2021/11/12 01:49:30;;;;;;;35.80;25.17;;;4.20;99.90;;;4.94;100.00;100888.84;5115483;28;20186;-59
2021/11/12 01:52:09;;;;;;;37.73;24.67;;;4.10;99.90;;;5.17;100.00;100885.53;5115483;28;20230;-59
2021/11/12 01:54:48;;;;;;;39.27;25.60;;;4.20;99.90;;;5.37;100.00;100878.84;5115601;28;20197;-59
2021/11/12 01:57:49;;;;;;;39.90;27.33;;;4.30;99.90;;;5.21;100.00;100878.84;5115392;28;20273;-59
2021/11/12 02:00:21;;;;;;;41.30;29.50;;;4.30;99.90;;;5.15;100.00;100884.84;5115036;28;20250;-59
2021/11/12 02:02:51;;;;;;;37.80;25.93;;;4.30;99.90;;;5.26;100.00;100882.66;5115204;28;20184;-59
2021/11/12 02:05:20;;;;;;;35.80;23.50;;;4.30;99.90;;;5.22;100.00;100888.53;5115419;28;20293;-60
2021/11/12 02:07:50;;;;;;;38.03;23.77;;;4.30;99.90;;;5.48;100.00;100886.50;5115407;28;20206;-59
2021/11/12 02:10:23;;;;;;;36.33;24.13;;;4.30;99.90;;;5.37;100.00;100892.19;5115288;28;20197;-59
2021/11/12 02:13:01;;;;;;;39.67;25.37;;;4.30;99.90;;;5.14;100.00;100884.03;5115550;28;20185;-59
2021/11/12 02:15:30;;;;;;;40.67;25.23;;;4.20;99.90;;;5.12;100.00;100878.03;5115162;28;20188;-59
2021/11/12 02:18:03;;;;;;;39.40;23.40;;;4.30;99.90;;;4.99;100.00;100880.31;5114788;28;20266;-59
2021/11/12 02:20:36;;;;;;;42.77;24.77;;;4.20;99.90;;;4.87;100.00;100871.00;5115171;28;20658;-60
2021/11/12 02:23:06;;;;;;;40.50;24.93;;;4.20;99.90;;;4.84;100.00;100866.81;5114982;28;20282;-59
2021/11/12 02:25:37;;;;;;;39.60;25.13;;;4.10;99.90;;;4.90;100.00;100876.00;5115319;28;20682;-59
2021/11/12 02:28:08;;;;;;;43.13;26.60;;;4.10;99.90;;;4.97;100.00;100872.50;5115166;28;20282;-59
2021/11/12 02:30:37;;;;;;;38.30;24.50;;;4.20;99.90;;;4.87;100.00;100871.81;5115012;28;20264;-59
2021/11/12 02:33:11;;;;;;;42.70;25.23;;;4.10;99.90;;;5.08;100.00;100862.47;5114767;28;20287;-59
2021/11/12 02:35:43;;;;;;;42.20;24.87;;;4.10;99.90;;;5.01;100.00;100866.84;5114748;28;20190;-59
2021/11/12 02:38:13;;;;;;;42.77;24.27;;;4.10;99.90;;;5.03;100.00;100870.16;5114733;28;20276;-59
2021/11/12 02:40:41;;;;;;;39.73;25.17;;;4.10;99.90;;;5.10;100.00;100860.47;5114883;28;20219;-58
2021/11/12 02:43:10;;;;;;;39.40;24.43;;;4.10;99.90;;;4.99;100.00;100862.50;5114732;28;20312;-60
2021/11/12 02:45:38;;;;;;;38.30;22.93;;;4.10;99.90;;;4.93;100.00;100863.16;5114546;28;20296;-59
2021/11/12 02:48:07;;;;;;;45.57;24.37;;;4.10;99.90;;;4.98;100.00;100858.16;5114284;28;20233;-60
2021/11/12 02:50:35;;;;;;;43.63;25.63;;;4.10;99.90;;;5.03;100.00;100867.47;5114612;28;20606;-58
2021/11/12 02:53:08;;;;;;;41.47;24.87;;;4.20;99.90;;;5.01;100.00;100866.84;5114493;28;20256;-59
2021/11/12 02:55:38;;;;;;;39.93;25.67;;;4.10;99.90;;;4.97;100.00;100866.34;5114382;28;20722;-59
2021/11/12 02:58:06;;;;;;;46.50;27.53;;;4.20;99.90;;;4.97;100.00;100872.50;5114320;28;20202;-59
2021/11/12 03:00:36;;;;;;;45.97;27.63;;;4.20;99.90;;;4.96;100.00;100875.31;5114374;28;20313;-59
2021/11/12 03:03:05;;;;;;;40.43;25.63;;;4.10;99.90;;;4.93;100.00;100870.31;5114107;28;20346;-59
2021/11/12 03:05:34;;;;;;;44.40;24.83;;;4.10;99.90;;;4.93;100.00;100871.16;5114031;28;20293;-59
2021/11/12 03:08:02;;;;;;;40.10;24.90;;;4.10;99.90;;;4.88;100.00;100875.34;5114086;28;20296;-59
2021/11/12 03:10:30;;;;;;;39.37;25.97;;;4.10;99.90;;;4.92;100.00;100872.16;5114050;28;20290;-59
2021/11/12 03:13:00;;;;;;;38.70;26.30;;;4.10;99.90;;;4.86;100.00;100878.16;5113967;28;20572;-59
2021/11/12 03:15:29;;;;;;;39.87;24.87;;;4.10;99.90;;;4.79;100.00;100874.47;5113941;28;20297;-58
2021/11/12 03:17:58;;;;;;;37.97;23.50;;;4.00;99.90;;;4.83;100.00;100867.81;5113710;28;20321;-58
2021/11/12 03:20:29;;;;;;;41.90;23.00;;;4.00;99.90;;;4.81;100.00;100866.31;5113962;28;20226;-59
2021/11/12 03:23:02;;;;;;;35.70;22.10;;;4.00;99.90;;;4.79;100.00;100865.63;5113874;28;20277;-59
2021/11/12 03:25:36;;;;;;;40.73;22.07;;;4.00;99.90;;;4.79;100.00;100869.16;5113689;28;20635;-58
2021/11/12 03:28:18;;;;;;;40.17;22.57;;;4.00;99.90;;;4.87;100.00;100861.13;5113237;28;20282;-59
2021/11/12 03:31:21;;;;;;;37.73;20.97;;;4.00;99.90;;;4.79;100.00;100869.16;5113939;28;20266;-59
2021/11/12 04:04:17;;;;;;;29.60;18.87;;;3.90;99.90;;;4.77;100.00;100875.63;5109839;28;20229;-58
2021/11/12 04:06:50;;;;;;;30.83;18.17;;;3.90;99.90;;;4.72;100.00;100870.81;5092931;28;20287;-58
2021/11/12 05:10:17;;;;;;;31.03;17.67;;;3.80;99.90;;;4.73;100.00;100829.78;5116639;28;20304;-59
2021/11/12 05:43:50;;;;;;;31.03;17.77;;;3.70;99.90;;;4.45;100.00;100808.88;5115804;28;20223;-59
2021/11/12 05:46:24;;;;;;;40.80;18.03;;;3.70;99.90;;;4.48;100.00;100805.91;5115540;28;20844;-59
2021/11/12 05:51:44;;;;;;;37.63;18.93;;;3.70;99.90;;;4.41;100.00;100802.22;5115149;28;20264;-60
2021/11/12 05:57:00;;;;;;;37.77;18.57;;;3.60;99.90;;;4.50;100.00;100796.72;5115276;28;20275;-59
2021/11/12 05:59:28;;;;;;;32.20;19.07;;;3.60;99.90;;;4.43;100.00;100802.91;5115293;28;20202;-59
2021/11/12 06:01:56;;;;;;;47.00;18.60;;;3.60;99.90;;;4.67;100.00;100801.09;5115078;28;20585;-59
2021/11/12 06:04:25;;;;;;;43.20;18.30;;;3.60;99.90;;;4.52;100.00;100801.91;5115251;27;20288;-60
2021/11/12 06:06:55;;;;;;;30.60;17.47;;;3.50;99.90;;;4.67;100.00;100795.75;5115275;28;20294;-60
2021/11/12 06:09:23;;;;;;;29.13;16.80;;;3.60;99.90;;;4.44;100.00;100810.75;5114882;28;20203;-58
2021/11/12 06:11:53;;;;;;;34.00;18.07;;;3.60;99.90;;;4.33;100.00;100807.56;5115263;28;20278;-60
2021/11/12 06:14:24;;;;;;;37.50;16.93;;;3.60;99.90;;;4.42;100.00;100807.41;5115352;28;20224;-59
2021/11/12 06:16:54;;;;;;;26.80;16.43;;;3.50;99.90;;;4.29;100.00;100806.19;5115147;28;20323;-60
2021/11/12 06:19:23;;;;;;;32.10;17.20;;;3.50;99.90;;;4.28;100.00;100807.22;5115039;28;20295;-59
2021/11/12 06:21:51;;;;;;;32.73;18.63;;;3.50;99.90;;;4.20;100.00;100807.16;5114913;28;20315;-59
2021/11/12 06:24:19;;;;;;;29.47;16.90;;;3.50;99.90;;;4.33;100.00;100803.03;5114863;28;20293;-59
2021/11/12 06:26:53;;;;;;;26.67;16.47;;;3.60;99.90;;;4.52;100.00;100794.75;5115122;28;20215;-59
2021/11/12 06:29:22;;;;;;;28.60;17.67;;;3.60;99.90;;;4.49;100.00;100794.22;5114919;28;20200;-59
2021/11/12 06:31:51;;;;;;;28.83;17.27;;;3.70;99.90;;;4.47;100.00;100794.41;5114500;28;20211;-60
2021/11/12 06:34:19;;;;;;;29.20;16.37;;;3.70;99.90;;;4.37;100.00;100788.38;5114335;28;20291;-59
2021/11/12 06:36:47;;;;;;;26.93;16.33;;;3.70;99.90;;;4.49;100.00;100789.75;5114552;27;20337;-59
2021/11/12 06:39:15;;;;;;;27.37;16.27;;;3.80;99.90;;;4.56;100.00;100798.75;5114665;28;20232;-59
2021/11/12 06:41:55;;;;;;;25.53;16.20;;;3.80;99.90;;;4.45;100.00;100801.72;5114578;28;20233;-59
2021/11/12 06:50:16;;;;;;;30.13;15.40;;;3.90;99.90;;;4.60;100.00;100816.09;5051226;28;20215;-59
2021/11/12 06:52:48;;;;;;;24.63;15.03;;;3.90;99.90;;;4.66;100.00;100810.09;5088978;28;20297;-60
2021/11/12 06:55:17;;;;;;;25.93;15.13;;;3.90;99.90;;;4.62;100.00;100805.25;5114529;28;20182;-60
2021/11/12 06:57:48;;;;;;;24.93;14.30;;;3.90;99.90;;;4.74;100.00;100809.25;5114445;28;20248;-59
2021/11/12 07:00:20;;;;;;;29.43;16.20;;;4.00;99.90;;;4.65;100.00;100805.75;5114285;28;20185;-60
2021/11/12 07:02:51;;;;;;;22.27;13.93;;;3.90;99.90;;;4.56;100.00;100809.44;5113137;28;20270;-59
2021/11/12 07:05:19;;;;;;;21.30;14.00;;;3.90;99.90;;;4.64;100.00;100800.59;5114137;28;20193;-59
2021/11/12 07:07:48;;;;;;;22.20;13.83;;;3.90;99.90;;;4.54;100.00;100807.91;5113701;28;20615;-58
2021/11/12 07:10:16;;;;;;;23.17;14.43;;;3.90;99.90;;;4.74;100.00;100817.25;5113700;28;20201;-59
2021/11/12 07:12:45;;;;;;;24.40;14.87;;;3.90;99.90;;;4.67;100.00;100817.09;5113685;28;20209;-60
2021/11/12 07:15:13;;;;;;;21.33;14.67;;;3.90;99.90;;;4.72;100.00;100809.44;5114002;28;20201;-60
2021/11/12 07:17:42;;;;;;;21.13;13.93;;;4.00;99.90;;;4.92;100.00;100809.94;5113422;28;20235;-58
2021/11/12 07:20:11;;;;;;;41.83;14.23;;;4.00;99.90;;;4.90;100.00;100811.94;5113923;28;20208;-59
2021/11/12 07:22:39;;;;;;;18.73;13.47;;;4.00;99.90;;;4.65;100.00;100805.75;5113384;28;20241;-59
2021/11/12 07:25:09;;;;;;;31.67;14.67;;;3.90;99.90;;;4.93;100.00;100798.25;5104403;28;20240;-59
2021/11/12 07:27:37;;;;;;;20.77;13.50;;;4.00;99.90;;;4.78;100.00;100799.94;5110074;28;20198;-59
2021/11/12 07:30:18;;;;;;;21.27;14.90;;;4.00;99.90;;;4.90;100.00;100802.06;5113623;28;20246;-58
2021/11/12 07:32:50;;;;;;;27.33;15.53;;;4.00;99.90;;;4.82;100.00;100804.75;5113526;28;20208;-59
2021/11/12 07:35:22;;;;;;;27.03;14.93;;;4.00;99.90;;;4.66;100.00;100812.78;5113423;28;20217;-59
2021/11/12 07:37:57;;;;;;;22.60;14.83;;;4.00;99.90;;;4.75;100.00;100803.75;5113477;28;20186;-59
2021/11/12 07:40:36;;;;;;;21.60;14.77;;;4.00;99.90;;;4.94;100.00;100794.56;5113509;28;20272;-59
2021/11/12 07:43:21;;;;;;;24.60;16.50;;;4.10;99.90;;;4.87;100.00;100796.28;5113077;28;20775;-59
2021/11/12 07:46:06;;;;;;;23.80;14.13;;;4.10;99.90;;;4.85;100.00;100798.28;5113143;28;20283;-60
2021/11/12 07:48:36;;;;;;;24.67;15.90;;;4.10;99.90;;;4.98;100.00;100801.25;5113338;28;20245;-59
2021/11/12 07:51:04;;;;;;;24.07;15.87;;;4.20;99.90;;;5.07;100.00;100791.41;5113051;28;20288;-60
2021/11/12 07:53:33;;;;;;;30.47;15.23;;;4.30;99.90;;;5.17;100.00;100794.72;5112797;28;20233;-60
2021/11/12 07:56:01;;;;;;;28.77;16.20;;;4.30;99.90;;;5.07;100.00;100800.25;5113203;28;20300;-59
2021/11/12 07:58:29;;;;;;;23.40;14.93;;;4.40;99.90;;;4.99;100.00;100795.75;5113332;28;20305;-58
2021/11/12 08:01:00;;;;;;;23.30;15.47;;;4.30;99.90;;;5.04;100.00;100792.56;5113267;28;20189;-60
2021/11/12 08:03:29;;;;;;;21.53;15.63;;;4.30;99.90;;;5.05;100.00;100783.56;5112771;28;20230;-60
2021/11/12 08:06:00;;;;;;;26.77;16.43;;;4.30;99.90;;;5.19;100.00;100788.22;5112760;28;20691;-59
2021/11/12 08:08:32;;;;;;;23.23;16.27;;;4.30;99.90;;;5.21;100.00;100785.38;5112865;28;20194;-59
2021/11/12 08:11:02;;;;;;;23.77;15.80;;;4.40;99.90;;;5.19;100.00;100782.03;5113427;28;20220;-59
2021/11/12 08:13:35;;;;;;;28.00;17.93;;;4.40;99.90;;;5.32;100.00;100771.66;5112995;28;20214;-60
2021/11/12 08:16:23;;;;;;;24.43;18.00;;;4.40;99.90;;;5.28;100.00;100778.34;5113087;28;20187;-59
2021/11/12 08:18:55;;;;;;;24.97;16.30;;;4.60;99.90;;;5.47;100.00;100777.97;5112603;28;20238;-59
2021/11/12 08:21:30;;;;;;;21.50;15.37;;;4.50;99.90;;;5.23;100.00;100767.34;5112967;28;20589;-60
2021/11/12 08:24:05;;;;;;;42.27;16.93;;;4.50;99.90;;;5.30;100.00;100762.97;5112579;28;20657;-58
2021/11/12 08:26:39;;;;;;;22.77;16.83;;;4.40;99.90;;;5.30;100.00;100766.50;5112840;28;20236;-60
2021/11/12 08:32:06;;;;;;;21.17;15.50;;;4.40;99.90;;;5.26;100.00;100762.47;5103520;28;20248;-59
2021/11/12 08:34:42;;;;;;;26.80;17.53;;;4.40;99.90;;;5.29;100.00;100762.16;5112825;28;20577;-60
2021/11/12 08:37:19;;;;;;;27.17;16.83;;;4.20;99.90;;;5.32;100.00;100752.97;5112607;28;20939;-59
2021/11/12 08:40:00;;;;;;;22.73;16.03;;;4.50;99.90;;;5.48;100.00;100748.41;5112672;28;20575;-59
2021/11/12 08:42:32;;;;;;;21.67;15.67;;;4.50;99.90;;;5.45;100.00;100740.72;5112353;28;20183;-59
2021/11/12 08:45:04;;;;;;;25.40;17.47;;;4.50;99.90;;;5.49;100.00;100752.75;5112848;28;20187;-60
2021/11/12 08:47:35;;;;;;;24.63;17.80;;;4.60;99.90;;;5.54;100.00;100746.88;5111964;28;20748;-59
2021/11/12 08:50:05;;;;;;;23.83;17.07;;;4.60;99.90;;;5.52;100.00;100755.06;5112511;28;20190;-60
2021/11/12 08:52:35;;;;;;;24.17;16.97;;;4.60;99.90;;;5.62;100.00;100750.34;5112498;28;20187;-59
2021/11/12 08:55:07;;;;;;;25.80;18.20;;;4.70;99.90;;;5.56;100.00;100747.56;5112531;28;20301;-59
2021/11/12 08:57:35;;;;;;;24.87;18.03;;;4.60;99.90;;;5.54;100.00;100746.88;5112716;28;20183;-59
2021/11/12 09:00:07;;;;;;;28.73;18.50;;;4.60;99.90;;;5.57;100.00;100757.22;5112108;28;20554;-59
2021/11/12 09:02:35;;;;;;;28.03;18.23;;;4.60;99.90;;;5.79;100.00;100753.78;5112807;28;20609;-60
2021/11/12 09:05:05;;;;;;;26.13;17.67;;;4.70;99.90;;;5.67;100.00;100753.34;5112891;28;20203;-59
2021/11/12 09:07:35;;;;;;;27.80;19.40;;;4.80;99.90;;;5.79;100.00;100746.63;5112422;28;20208;-59
2021/11/12 09:10:04;;;;;;;23.40;17.53;;;4.80;99.90;;;5.84;100.00;100738.94;5112791;28;20191;-59
2021/11/12 09:12:33;;;;;;;29.57;18.27;;;4.90;99.90;;;5.98;100.00;100737.34;5112217;28;20293;-58
2021/11/12 09:15:10;;;;;;;26.77;18.50;;;4.90;99.90;;;6.06;100.00;100729.28;5112439;28;20200;-59
2021/11/12 09:17:44;;;;;;;24.07;17.90;;;5.00;99.90;;;6.05;100.00;100736.47;5112030;28;20266;-60
2021/11/12 09:20:23;;;;;;;27.67;18.30;;;5.00;99.90;;;5.75;100.00;100739.13;5112358;28;20180;-59
2021/11/12 09:22:53;;;;;;;25.63;17.57;;;4.90;99.90;;;5.72;100.00;100739.44;5112232;28;20293;-59
2021/11/12 09:25:23;;;;;;;27.20;18.37;;;4.90;99.90;;;5.72;100.00;100744.78;5113893;28;20274;-60
2021/11/12 09:27:52;;;;;;;26.33;19.43;;;4.90;99.90;;;5.87;100.00;100735.91;5116258;28;20293;-60
2021/11/12 09:30:25;;;;;;;29.63;20.37;;;4.90;99.90;;;5.90;100.00;100732.06;5116124;28;20294;-59
2021/11/12 09:32:56;;;;;;;27.70;18.87;;;5.00;99.90;;;6.00;100.00;100720.09;5116034;28;20190;-59
2021/11/12 09:35:25;;;;;;;28.13;18.80;;;5.00;99.90;;;6.07;100.00;100704.22;5115817;28;20213;-59
2021/11/12 09:37:54;;;;;;;28.47;18.87;;;5.10;99.90;;;6.08;100.00;100713.91;5115423;28;20551;-58
2021/11/12 09:40:22;;;;;;;24.93;18.20;;;5.10;99.90;;;6.07;100.00;100707.69;5115891;28;20238;-58
2021/11/12 09:42:52;;;;;;;30.90;19.20;;;5.10;99.90;;;6.09;100.00;100702.19;5115571;28;20256;-59
2021/11/12 09:45:21;;;;;;;31.53;19.73;;;5.10;99.90;;;6.19;100.00;100700.09;5115967;28;20286;-59
2021/11/12 09:47:52;;;;;;;33.83;19.43;;;5.10;99.90;;;6.13;100.00;100695.47;5115384;28;20234;-58
2021/11/12 09:50:28;;;;;;;26.83;18.63;;;5.10;99.90;;;6.19;100.00;100692.91;5104045;28;20288;-59
2021/11/12 09:53:00;;;;;;;29.90;20.53;;;5.20;99.90;;;6.13;100.00;100688.28;5095259;28;20190;-59
2021/11/12 09:55:30;;;;;;;30.17;20.33;;;5.20;99.90;;;6.36;100.00;100682.91;5095046;28;20715;-58
2021/11/12 09:58:00;;;;;;;29.27;20.03;;;5.20;99.90;;;6.54;100.00;100678.09;5094971;28;20238;-59
2021/11/12 10:00:32;;;;;;;29.40;20.17;;;5.30;99.90;;;6.52;100.00;100674.75;5095345;28;20298;-59
2021/11/12 10:03:01;;;;;;;30.77;20.50;;;5.40;99.90;;;6.58;100.00;100674.03;5094962;28;20249;-58
2021/11/12 10:05:42;;;;;;;26.53;19.73;;;5.50;99.90;;;6.71;100.00;100665.38;5104535;28;20907;-59
2021/11/12 10:08:26;;;;;;;26.03;19.33;;;5.60;99.90;;;6.55;100.00;100668.19;5114935;28;20257;-58
2021/11/12 10:10:59;;;;;;;29.20;20.57;;;5.50;99.90;;;6.69;100.00;100656.72;5113677;28;20226;-59
2021/11/12 10:13:32;;;;;;;29.03;20.13;;;5.60;99.90;;;6.69;100.00;100644.16;5115134;28;20281;-59
2021/11/12 10:16:16;;;;;;;28.20;20.37;;;5.60;99.90;;;6.60;100.00;100645.25;5115339;28;20212;-59
2021/11/12 10:19:08;;;;;;;28.43;19.47;;;5.60;99.90;;;6.60;100.00;100645.25;5114726;28;20319;-59
2021/11/12 10:21:40;;;;;;;30.33;20.27;;;5.60;99.90;;;6.76;100.00;100645.09;5115255;28;20184;-60
2021/11/12 10:24:18;;;;;;;32.27;21.37;;;5.60;99.90;;;6.62;100.00;100639.69;5114831;28;20232;-57
2021/11/12 10:26:51;;;;;;;30.13;21.53;;;5.60;99.90;;;6.45;100.00;100625.66;5114972;28;20278;-59
2021/11/12 10:29:23;;;;;;;30.43;20.93;;;5.50;99.90;;;6.59;100.00;100616.00;5114873;28;20187;-60
2021/11/12 10:31:55;;;;;;;27.07;20.03;;;5.50;99.90;;;6.55;100.00;100603.97;5114924;28;20286;-58
2021/11/12 10:34:27;;;;;;;28.87;20.90;;;5.60;99.90;;;6.77;100.00;100592.38;5114699;28;20269;-58
2021/11/12 10:37:01;;;;;;;30.37;20.57;;;5.70;99.90;;;6.75;100.00;100592.56;5114842;28;20725;-58
2021/11/12 10:39:40;;;;;;;29.80;21.43;;;5.70;99.90;;;6.89;100.00;100583.69;5114423;28;20226;-60
2021/11/12 10:42:13;;;;;;;31.13;20.63;;;5.80;99.90;;;6.99;100.00;100578.88;5114881;28;20184;-59
2021/11/12 10:44:46;;;;;;;30.37;20.83;;;5.80;99.90;;;7.03;100.00;100571.31;5114129;28;20706;-58
2021/11/12 10:47:17;;;;;;;33.33;22.80;;;5.90;99.90;;;7.13;100.00;100569.16;5114671;28;20222;-59
2021/11/12 10:49:48;;;;;;;31.83;21.70;;;6.00;99.90;;;7.15;100.00;100559.09;5114570;28;20184;-60
2021/11/12 10:52:19;;;;;;;33.23;22.23;;;6.10;99.90;;;7.03;100.00;100550.72;5114464;28;20274;-60
2021/11/12 10:54:55;;;;;;;30.67;21.70;;;6.00;99.90;;;7.21;100.00;100552.97;5114290;28;20184;-58
2021/11/12 10:57:30;;;;;;;33.13;21.00;;;6.10;99.90;;;7.19;100.00;100542.47;5114630;28;20281;-59
2021/11/12 11:00:10;;;;;;;30.73;21.10;;;6.10;99.90;;;6.99;100.00;100545.91;5114554;28;20190;-60
2021/11/12 11:02:42;;;;;;;31.93;21.47;;;6.00;99.90;;;6.99;100.00;100544.06;5114158;28;20281;-58
2021/11/12 11:05:14;;;;;;;29.93;20.03;;;6.00;99.90;;;6.99;100.00;100533.34;5114117;28;20673;-59
2021/11/12 11:07:51;;;;;;;30.70;22.20;;;6.00;99.90;;;7.08;100.00;100529.56;5114282;28;20274;-58
2021/11/12 11:10:27;;;;;;;33.43;20.43;;;6.10;99.90;;;6.91;100.00;100529.94;5113995;28;20660;-59
2021/11/12 11:13:00;;;;;;;33.37;22.90;;;5.90;99.90;;;6.93;100.00;100517.22;5114400;28;20226;-59
2021/11/12 11:15:35;;;;;;;29.87;21.33;;;5.90;99.90;;;6.86;100.00;100521.66;5114283;28;20554;-58
2021/11/12 11:18:28;;;;;;;29.00;20.97;;;5.90;99.90;;;6.76;100.00;100515.75;5113620;28;20234;-59
2021/11/12 11:21:14;;;;;;;32.03;21.67;;;5.80;99.90;;;6.84;100.00;100515.66;5114161;28;20180;-60
2021/11/12 11:23:46;;;;;;;31.53;21.77;;;5.80;99.90;;;6.87;100.00;100521.47;5113885;28;20271;-59
2021/11/12 11:26:20;;;;;;;31.13;21.47;;;5.80;99.90;;;6.79;100.00;100518.06;5113910;28;20188;-59
2021/11/12 11:28:50;;;;;;;34.10;22.13;;;5.80;99.90;;;7.08;100.00;100508.13;5113869;28;20274;-57
2021/11/12 11:31:19;;;;;;;30.83;21.93;;;5.90;99.90;;;6.89;100.00;100516.75;5113522;28;20638;-59
2021/11/12 11:33:52;;;;;;;29.30;20.40;;;5.90;99.90;;;6.69;100.00;100507.66;5113695;28;20207;-59
2021/11/12 11:36:23;;;;;;;28.50;21.13;;;5.80;99.90;;;6.73;100.00;100508.91;5113483;28;20184;-59
2021/11/12 11:38:54;;;;;;;30.83;21.23;;;5.80;99.90;;;6.72;100.00;100506.41;5113060;28;20278;-59
2021/11/12 11:41:26;;;;;;;30.50;21.60;;;5.80;99.90;;;6.55;100.00;100507.63;5113370;28;20188;-58
2021/11/12 11:43:55;;;;;;;30.47;20.00;;;5.70;99.90;;;6.62;100.00;100504.03;5113483;28;20189;-58
2021/11/12 11:46:26;;;;;;;31.07;21.57;;;5.70;99.90;;;6.56;100.00;100494.06;5113433;28;20199;-59
2021/11/12 11:48:57;;;;;;;33.33;21.93;;;5.70;99.90;;;6.53;100.00;100489.09;5112602;28;20546;-59
2021/11/12 11:51:35;;;;;;;32.80;22.10;;;5.70;99.90;;;6.66;100.00;100491.97;5112958;28;20279;-60
2021/11/12 11:54:07;;;;;;;31.07;21.50;;;5.70;99.90;;;6.56;100.00;100493.25;5112977;28;20225;-57
2021/11/12 11:56:38;;;;;;;32.00;22.10;;;5.70;99.90;;;6.86;100.00;100481.50;5113264;28;20214;-59
2021/11/12 11:59:16;;;;;;;31.93;22.43;;;5.70;99.90;;;6.67;100.00;100485.56;5113044;28;20210;-59
2021/11/12 12:01:51;;;;;;;34.63;22.53;;;5.70;99.90;;;6.68;100.00;100479.19;5113327;28;20458;-59
2021/11/12 12:04:26;;;;;;;33.47;22.77;;;5.80;99.90;;;6.78;100.00;100468.22;5113039;28;20214;-59
2021/11/12 12:07:30;;;;;;;34.27;23.07;;;5.80;99.90;;;6.74;100.00;100459.72;5113101;28;20222;-59
2021/11/12 12:10:17;;;;;;;34.30;23.07;;;5.80;99.90;;;6.95;100.00;100458.94;5113025;28;20260;-59
2021/11/12 12:12:58;;;;;;;35.00;22.03;;;5.90;99.90;;;7.08;100.00;100451.88;5111773;28;20306;-59
2021/11/12 12:15:38;;;;;;;37.83;21.93;;;6.00;99.90;;;6.95;100.00;100448.22;5113174;28;20189;-60
2021/11/12 12:18:14;;;;;;;34.17;22.03;;;6.00;99.90;;;6.88;100.00;100434.75;5112305;28;20322;-59
2021/11/12 12:21:01;;;;;;;35.53;23.87;;;5.90;99.90;;;6.99;100.00;100420.88;5113064;28;20608;-60
2021/11/12 13:23:15;;;;;;;36.73;24.17;;;5.60;99.90;;;6.46;100.00;100380.31;5116109;28;20200;-59
2021/11/12 13:25:46;;;;;;;35.40;24.57;;;5.60;99.90;;;6.55;100.00;100389.88;5116108;28;20210;-59
2021/11/12 13:28:23;;;;;;;35.30;24.17;;;5.70;99.90;;;6.47;100.00;100388.16;5116224;28;20187;-59
2021/11/12 13:30:55;;;;;;;34.70;23.83;;;5.60;99.90;;;6.26;100.00;100372.03;5116168;28;20183;-59
2021/11/12 13:33:41;;;;;;;34.13;23.27;;;5.60;99.90;;;6.42;100.00;100373.69;5116071;28;20271;-60
2021/11/12 13:36:22;;;;;;;36.33;24.50;;;5.50;99.90;;;6.29;100.00;100371.69;5115926;28;20737;-60
2021/11/12 13:38:57;;;;;;;38.33;24.70;;;5.50;99.90;;;6.33;100.00;100370.28;5116030;28;20285;-59
2021/11/12 13:41:28;;;;;;;34.27;23.20;;;5.50;99.90;;;6.19;100.00;100366.59;5116033;28;20182;-59
2021/11/12 13:44:02;;;;;;;39.50;24.97;;;5.50;99.90;;;6.26;100.00;100372.03;5115969;28;20312;-59
2021/11/12 13:46:44;;;;;;;34.43;23.37;;;5.50;99.90;;;6.16;100.00;100377.69;5115792;28;20214;-61
2021/11/12 13:49:24;;;;;;;36.10;23.13;;;5.40;99.90;;;6.18;100.00;100385.53;5115409;28;20264;-58
2021/11/12 13:52:00;;;;;;;35.97;22.70;;;5.50;99.90;;;6.15;100.00;100375.19;5116013;28;20187;-59
2021/11/12 13:54:29;;;;;;;33.77;22.33;;;5.40;99.90;;;6.09;100.00;100381.28;5115605;28;20605;-59
2021/11/12 13:56:57;;;;;;;38.77;25.00;;;5.40;99.90;;;6.14;100.00;100377.03;5115426;28;20245;-59